createdAt,value
2019-05-23T00:02:04.582Z,12.03
2019-05-23T00:05:03.551Z,14.98
2019-05-23T00:07:51.343Z,12.53
2019-05-23T00:10:40.785Z,12.10
2019-05-23T00:13:16.863Z,11.25
2019-05-23T00:15:52.497Z,8.35
2019-05-23T00:18:24.279Z,9.25
2019-05-23T00:20:54.525Z,8.03
2019-05-23T00:23:25.707Z,5.50
2019-05-23T00:25:55.644Z,7.90
2019-05-23T00:28:25.904Z,6.50
2019-05-23T00:31:00.349Z,8.55
2019-05-23T00:33:31.907Z,5.90
2019-05-23T00:36:02.378Z,10.43
2019-05-23T00:38:33.178Z,8.95
2019-05-23T00:41:03.389Z,9.50
2019-05-23T00:43:33.237Z,10.88
2019-05-23T00:46:03.754Z,11.33
2019-05-23T00:48:34.734Z,9.60
2019-05-23T00:51:06.217Z,10.30
2019-05-23T00:53:36.991Z,13.32
2019-05-23T00:56:08.928Z,9.90
2019-05-23T00:58:39.469Z,14.00
2019-05-23T01:01:11.720Z,13.22
2019-05-23T01:03:41.571Z,9.28
2019-05-23T01:06:13.531Z,9.60
2019-05-23T01:08:44.637Z,13.78
2019-05-23T01:11:16.422Z,12.95
2019-05-23T01:13:46.719Z,12.45
2019-05-23T01:16:18.950Z,14.47
2019-05-23T01:18:52.089Z,15.25
2019-05-23T01:21:24.171Z,11.73
2019-05-23T01:23:58.476Z,11.65
2019-05-23T01:26:28.967Z,14.00
2019-05-23T01:28:59.497Z,11.88
2019-05-23T01:31:31.058Z,11.03
2019-05-23T01:34:00.934Z,11.28
2019-05-23T01:36:31.152Z,13.85
2019-05-23T01:39:02.557Z,13.98
2019-05-23T01:41:32.888Z,9.88
2019-05-23T01:44:03.945Z,12.05
2019-05-23T01:46:34.264Z,15.08
2019-05-23T01:49:05.294Z,10.40
2019-05-23T01:51:35.151Z,15.68
2019-05-23T01:54:06.001Z,11.55
2019-05-23T01:56:36.685Z,12.40
2019-05-23T01:59:06.999Z,12.50
2019-05-23T02:01:37.822Z,15.65
2019-05-23T02:04:08.445Z,19.05
2019-05-23T02:06:39.001Z,15.13
2019-05-23T02:09:09.513Z,16.23
2019-05-23T02:11:40.158Z,12.68
2019-05-23T02:14:10.583Z,17.62
2019-05-23T02:16:41.109Z,15.55
2019-05-23T02:19:13.644Z,17.25
2019-05-23T02:21:43.207Z,13.48
2019-05-23T02:24:13.527Z,17.57
2019-05-23T02:26:44.725Z,12.18
2019-05-23T02:29:14.737Z,15.60
2019-05-23T02:31:45.268Z,13.10
2019-05-23T02:34:15.486Z,18.30
2019-05-23T02:36:59.175Z,13.45
2019-05-23T02:39:33.977Z,12.60
2019-05-23T02:42:21.741Z,15.40
2019-05-23T02:44:53.094Z,15.18
2019-05-23T02:47:25.153Z,19.45
2019-05-23T02:49:56.265Z,17.57
2019-05-23T02:52:35.216Z,14.83
2019-05-23T02:55:08.328Z,14.38
2019-05-23T02:57:38.251Z,13.93
2019-05-23T03:00:21.804Z,18.40
2019-05-23T03:05:23.060Z,15.50
2019-05-23T03:07:53.758Z,14.38
2019-05-23T03:10:24.276Z,15.95
2019-05-23T03:12:54.589Z,15.35
2019-05-23T03:15:27.454Z,16.40
2019-05-23T03:17:58.933Z,17.02
2019-05-23T03:20:29.857Z,17.95
2019-05-23T03:23:04.343Z,17.45
2019-05-23T03:25:39.475Z,15.43
2019-05-23T03:28:12.754Z,17.37
2019-05-23T03:30:44.341Z,13.38
2019-05-23T03:33:15.114Z,13.60
2019-05-23T03:35:46.757Z,13.58
2019-05-23T03:38:17.097Z,12.58
2019-05-23T03:40:47.892Z,9.98
2019-05-23T03:43:17.728Z,16.87
2019-05-23T03:45:52.184Z,11.90
2019-05-23T03:48:22.037Z,13.15
2019-05-23T03:50:52.583Z,13.03
2019-05-23T03:53:24.461Z,11.95
2019-05-23T03:55:55.015Z,12.25
2019-05-23T03:58:25.943Z,13.68
2019-05-23T04:00:57.375Z,14.43
2019-05-23T04:03:27.550Z,11.05
2019-05-23T04:05:57.726Z,11.83
2019-05-23T04:08:28.354Z,15.08
2019-05-23T04:10:58.287Z,19.15
2019-05-23T04:13:28.528Z,13.62
2019-05-23T04:15:58.959Z,16.97
2019-05-23T04:18:29.202Z,16.45
2019-05-23T04:20:59.679Z,13.30
2019-05-23T04:23:29.604Z,13.38
2019-05-23T04:25:59.830Z,16.62
2019-05-23T04:28:29.701Z,17.80
2019-05-23T04:31:00.626Z,14.23
2019-05-23T04:33:30.812Z,13.18
2019-05-23T04:36:00.922Z,16.05
2019-05-23T04:38:30.801Z,15.45
2019-05-23T04:41:00.674Z,17.37
2019-05-23T04:43:30.603Z,14.20
2019-05-23T04:46:01.140Z,13.60
2019-05-23T04:48:32.123Z,13.88
2019-05-23T04:51:03.171Z,13.60
2019-05-23T04:53:33.095Z,19.00
2019-05-23T04:56:03.830Z,16.07
2019-05-23T04:58:35.066Z,14.95
2019-05-23T05:01:05.360Z,13.50
2019-05-23T05:03:35.486Z,20.05
2019-05-23T05:06:06.253Z,20.92
2019-05-23T05:08:38.316Z,16.02
2019-05-23T05:11:08.170Z,20.17
2019-05-23T05:13:38.440Z,18.40
2019-05-23T05:16:08.863Z,16.77
2019-05-23T05:18:38.885Z,17.35
2019-05-23T05:21:08.923Z,20.48
2019-05-23T05:23:38.778Z,18.20
2019-05-23T05:26:11.917Z,15.70
2019-05-23T05:28:41.792Z,12.50
2019-05-23T05:31:11.722Z,15.95
2019-05-23T05:33:41.574Z,12.78
2019-05-23T05:36:11.773Z,16.27
2019-05-23T05:38:43.340Z,24.12
2019-05-23T05:41:13.205Z,19.42
2019-05-23T05:43:43.097Z,14.98
2019-05-23T05:46:12.955Z,26.30
2019-05-23T05:48:43.596Z,24.52
2019-05-23T05:51:13.842Z,22.17
2019-05-23T05:53:43.952Z,16.80
2019-05-23T05:56:13.820Z,24.45
2019-05-23T05:58:44.075Z,18.25
2019-05-23T06:01:31.174Z,20.77
2019-05-23T06:03:46.876Z,24.87
2019-05-23T06:06:18.378Z,21.33
2019-05-23T06:09:05.910Z,16.93
2019-05-23T06:11:35.848Z,17.00
2019-05-23T06:14:06.574Z,21.23
2019-05-23T06:16:36.607Z,20.45
2019-05-23T06:19:07.052Z,24.12
2019-05-23T06:21:37.383Z,24.50
2019-05-23T06:24:07.248Z,11.75
2019-05-23T06:26:37.500Z,26.27
2019-05-23T06:29:07.890Z,19.27
2019-05-23T06:31:38.298Z,16.97
2019-05-23T06:34:08.479Z,29.57
2019-05-23T06:36:38.703Z,24.20
2019-05-23T06:39:10.266Z,16.67
2019-05-23T06:41:40.796Z,21.00
2019-05-23T06:44:10.732Z,17.10
2019-05-23T06:46:40.770Z,31.65
2019-05-23T06:49:10.713Z,32.50
2019-05-23T06:51:41.107Z,18.25
2019-05-23T06:54:11.237Z,32.13
2019-05-23T06:56:41.527Z,42.70
2019-05-23T06:59:11.401Z,45.78
2019-05-23T07:01:41.341Z,30.37
2019-05-23T07:04:11.266Z,30.40
2019-05-23T07:06:41.119Z,34.73
2019-05-23T07:09:16.944Z,20.82
2019-05-23T07:11:46.799Z,20.57
2019-05-23T07:14:17.023Z,24.37
2019-05-23T07:16:50.261Z,31.95
2019-05-23T07:19:18.722Z,36.33
2019-05-23T07:21:48.667Z,23.30
2019-05-23T07:24:18.890Z,29.55
2019-05-23T07:26:48.823Z,27.07
2019-05-23T07:29:18.926Z,19.05
2019-05-23T07:31:48.890Z,24.63
2019-05-23T07:34:18.998Z,19.52
2019-05-23T07:36:49.763Z,22.27
2019-05-23T07:39:19.695Z,22.45
2019-05-23T07:41:49.944Z,23.57
2019-05-23T07:44:19.879Z,24.90
2019-05-23T07:46:49.734Z,22.00
2019-05-23T07:49:19.617Z,20.75
2019-05-23T07:51:49.492Z,22.73
2019-05-23T07:54:20.979Z,21.55
2019-05-23T07:56:51.841Z,20.35
2019-05-23T07:59:21.711Z,20.45
2019-05-23T08:02:02.218Z,17.45
2019-05-23T08:04:32.247Z,21.17
2019-05-23T08:07:02.133Z,17.80
2019-05-23T08:09:32.346Z,16.17
2019-05-23T08:12:02.208Z,18.75
2019-05-23T08:14:32.131Z,27.65
2019-05-23T08:17:02.185Z,18.67
2019-05-23T08:19:48.562Z,16.90
2019-05-23T08:22:04.536Z,17.87
2019-05-23T08:24:34.411Z,16.73
2019-05-23T08:27:05.898Z,16.30
2019-05-23T08:29:36.698Z,21.55
2019-05-23T08:32:07.417Z,18.00
2019-05-23T08:34:42.350Z,23.52
2019-05-23T08:37:11.673Z,16.57
2019-05-23T08:39:41.911Z,18.87
2019-05-23T08:42:12.368Z,16.97
2019-05-23T08:44:42.370Z,18.98
2019-05-23T08:47:13.286Z,17.95
2019-05-23T08:49:43.527Z,15.83
2019-05-23T08:52:13.455Z,14.87
2019-05-23T08:54:43.791Z,15.43
2019-05-23T08:57:15.053Z,15.78
2019-05-23T08:59:44.866Z,18.45
2019-05-23T09:02:16.513Z,14.25
2019-05-23T09:05:03.473Z,14.40
2019-05-23T09:07:19.145Z,14.97
2019-05-23T09:09:48.999Z,19.07
2019-05-23T09:12:19.094Z,12.70
2019-05-23T09:14:49.450Z,12.90
2019-05-23T09:17:19.323Z,9.30
2019-05-23T09:19:49.551Z,12.98
2019-05-23T09:22:19.869Z,11.97
2019-05-23T09:24:49.730Z,12.55
2019-05-23T09:27:19.649Z,22.15
2019-05-23T09:29:49.702Z,11.68
2019-05-23T09:32:19.943Z,9.50
2019-05-23T09:34:49.789Z,13.28
2019-05-23T09:37:20.024Z,14.47
2019-05-23T09:39:50.425Z,14.68
2019-05-23T09:42:20.383Z,13.60
2019-05-23T09:44:50.748Z,12.15
2019-05-23T09:47:20.978Z,16.15
2019-05-23T09:49:54.390Z,16.10
2019-05-23T09:52:24.037Z,11.90
2019-05-23T09:54:54.394Z,14.25
2019-05-23T09:57:24.439Z,12.00
2019-05-23T09:59:56.868Z,21.70
2019-05-23T10:02:27.463Z,14.70
2019-05-23T10:04:57.773Z,14.55
2019-05-23T10:07:27.972Z,18.27
2019-05-23T10:09:57.815Z,15.50
2019-05-23T10:12:27.689Z,15.45
2019-05-23T10:14:57.538Z,15.53
2019-05-23T10:17:27.606Z,13.32
2019-05-23T10:19:57.462Z,8.45
2019-05-23T10:22:27.306Z,9.55
2019-05-23T10:24:57.329Z,10.43
2019-05-23T10:27:27.592Z,17.57
2019-05-23T10:29:57.837Z,9.55
2019-05-23T10:32:28.043Z,12.93
2019-05-23T10:34:57.902Z,8.80
2019-05-23T10:37:29.285Z,10.20
2019-05-23T10:39:59.177Z,13.65
2019-05-23T10:42:29.040Z,10.35
2019-05-23T10:44:58.916Z,9.70
2019-05-23T10:47:28.847Z,14.43
2019-05-23T10:49:59.064Z,10.68
2019-05-23T10:52:29.339Z,14.90
2019-05-23T10:54:59.391Z,10.72
2019-05-23T10:57:29.422Z,9.88
2019-05-23T10:59:59.579Z,10.38
2019-05-23T11:02:29.805Z,12.98
2019-05-23T11:05:11.540Z,10.28
2019-05-23T11:07:31.474Z,12.10
2019-05-23T11:10:01.327Z,13.95
2019-05-23T11:12:31.177Z,15.50
2019-05-23T11:15:01.409Z,10.10
2019-05-23T11:17:31.492Z,13.88
2019-05-23T11:20:01.354Z,14.63
2019-05-23T11:22:31.282Z,13.83
2019-05-23T11:25:02.584Z,13.90
2019-05-23T11:27:34.230Z,15.70
2019-05-23T11:30:10.330Z,15.15
2019-05-23T11:32:40.707Z,13.22
2019-05-23T11:35:10.593Z,11.75
2019-05-23T11:37:42.084Z,16.42
2019-05-23T11:40:12.548Z,11.63
2019-05-23T11:42:42.450Z,17.52
2019-05-23T11:45:12.900Z,14.28
2019-05-23T11:47:42.903Z,15.65
2019-05-23T11:50:12.762Z,12.98
2019-05-23T11:52:42.939Z,14.07
2019-05-23T11:55:13.152Z,13.43
2019-05-23T11:57:43.021Z,19.20
2019-05-23T12:00:16.125Z,13.10
2019-05-23T12:02:47.555Z,18.87
2019-05-23T12:05:19.078Z,18.00
2019-05-23T12:07:49.090Z,14.40
2019-05-23T12:10:19.120Z,13.65
2019-05-23T12:12:48.995Z,12.90
2019-05-23T12:15:27.006Z,17.55
2019-05-23T12:17:56.948Z,13.98
2019-05-23T12:20:26.885Z,15.30
2019-05-23T12:22:56.810Z,14.73
2019-05-23T12:25:27.905Z,10.82
2019-05-23T12:27:57.755Z,20.85
2019-05-23T12:30:27.887Z,9.85
2019-05-23T12:32:58.047Z,9.65
2019-05-23T12:35:27.912Z,18.73
2019-05-23T12:38:02.007Z,10.03
2019-05-23T12:40:30.047Z,10.18
2019-05-23T12:43:01.516Z,7.28
2019-05-23T12:45:32.672Z,14.93
2019-05-23T12:48:11.245Z,13.58
2019-05-23T12:50:53.824Z,11.93
2019-05-23T12:53:21.110Z,8.58
2019-05-23T12:55:51.191Z,7.00
2019-05-23T12:58:21.750Z,8.28
2019-05-23T13:00:54.085Z,6.72
2019-05-23T13:03:23.991Z,8.83
2019-05-23T13:05:54.285Z,11.57
2019-05-23T13:08:24.208Z,6.15
2019-05-23T13:10:54.082Z,5.15
2019-05-23T13:13:24.434Z,7.62
2019-05-23T13:15:54.295Z,9.75
2019-05-23T13:18:24.777Z,8.68
2019-05-23T13:20:58.715Z,5.50
2019-05-23T13:23:27.271Z,5.97
2019-05-23T13:25:57.111Z,6.50
2019-05-23T13:28:27.034Z,7.50
2019-05-23T13:30:57.342Z,6.03
2019-05-23T13:33:27.248Z,9.53
2019-05-23T13:35:57.106Z,13.95
2019-05-23T13:38:26.970Z,9.58
2019-05-23T13:40:56.823Z,5.50
2019-05-23T13:43:27.634Z,7.05
2019-05-23T13:45:57.566Z,8.98
2019-05-23T13:48:29.205Z,7.65
2019-05-23T13:50:59.229Z,6.40
2019-05-23T13:53:29.738Z,9.60
2019-05-23T13:55:59.859Z,7.78
2019-05-23T13:58:30.092Z,11.28
2019-05-23T14:00:59.948Z,7.92
2019-05-23T14:03:29.864Z,9.23
2019-05-23T14:05:59.898Z,11.68
2019-05-23T14:08:29.749Z,8.00
2019-05-23T14:10:59.607Z,12.65
2019-05-23T14:13:31.337Z,10.32
2019-05-23T14:16:01.280Z,11.20
2019-05-23T14:18:33.043Z,9.85
2019-05-23T14:21:03.125Z,9.83
2019-05-23T14:23:33.933Z,17.20
2019-05-23T14:26:04.776Z,10.10
2019-05-23T14:28:34.681Z,11.85
2019-05-23T14:31:15.009Z,13.38
2019-05-23T14:33:49.670Z,8.50
2019-05-23T14:36:37.605Z,12.35
2019-05-23T14:39:09.172Z,9.23
2019-05-23T14:41:45.274Z,8.75
2019-05-23T14:44:12.685Z,12.55
2019-05-23T14:47:02.349Z,9.10
2019-05-23T14:49:33.838Z,10.48
2019-05-23T14:52:17.571Z,10.58
2019-05-23T14:54:48.803Z,14.10
2019-05-23T14:57:19.784Z,10.78
2019-05-23T14:59:49.665Z,8.90
2019-05-23T15:02:21.605Z,8.83
2019-05-23T15:04:51.479Z,10.23
2019-05-23T15:07:21.847Z,13.85
2019-05-23T15:09:51.709Z,10.23
2019-05-23T15:12:21.722Z,11.18
2019-05-23T15:14:51.585Z,8.40
2019-05-23T15:17:21.707Z,8.40
2019-05-23T15:19:51.931Z,9.15
2019-05-23T15:22:21.784Z,6.83
2019-05-23T15:24:51.628Z,6.50
2019-05-23T15:27:21.470Z,6.12
2019-05-23T15:29:51.331Z,6.62
2019-05-23T15:32:21.506Z,11.00
2019-05-23T15:34:51.358Z,12.18
2019-05-23T15:37:22.677Z,8.83
2019-05-23T15:39:52.993Z,8.98
2019-05-23T15:42:22.913Z,8.08
2019-05-23T15:44:52.835Z,7.33
2019-05-23T15:47:24.600Z,5.35
2019-05-23T15:49:56.434Z,5.60
2019-05-23T15:52:43.255Z,8.10
2019-05-23T15:55:17.522Z,6.95
2019-05-23T15:57:58.074Z,4.42
2019-05-23T16:00:32.026Z,6.92
2019-05-23T16:03:20.292Z,6.95
2019-05-23T16:05:50.934Z,4.28
2019-05-23T16:08:20.804Z,9.80
2019-05-23T16:10:51.213Z,4.85
2019-05-23T16:13:21.123Z,6.55
2019-05-23T16:15:50.992Z,4.80
2019-05-23T16:18:21.388Z,4.10
2019-05-23T16:20:51.281Z,5.78
2019-05-23T16:23:21.443Z,9.65
2019-05-23T16:25:51.300Z,5.75
2019-05-23T16:28:21.466Z,5.62
2019-05-23T16:30:51.397Z,4.62
2019-05-23T16:33:21.257Z,7.70
2019-05-23T16:35:51.455Z,8.70
2019-05-23T16:38:21.301Z,5.50
2019-05-23T16:40:51.152Z,5.45
2019-05-23T16:43:21.396Z,6.62
2019-05-23T16:45:51.351Z,4.15
2019-05-23T16:48:21.613Z,6.97
2019-05-23T16:50:51.496Z,7.15
2019-05-23T16:53:21.361Z,9.30
2019-05-23T16:55:56.467Z,5.62
2019-05-23T16:58:42.274Z,7.80
2019-05-23T17:01:23.561Z,7.30
2019-05-23T17:06:22.965Z,7.15
2019-05-23T17:08:57.431Z,6.03
2019-05-23T17:11:34.991Z,7.40
2019-05-23T17:14:06.791Z,4.40
2019-05-23T17:16:38.348Z,4.90
2019-05-23T17:19:12.640Z,5.67
2019-05-23T17:21:50.519Z,6.05
2019-05-23T17:24:40.366Z,5.50
2019-05-23T17:27:23.996Z,4.40
2019-05-23T17:29:55.559Z,4.12
2019-05-23T17:32:29.958Z,5.47
2019-05-23T17:35:00.155Z,6.22
2019-05-23T17:37:30.086Z,9.18
2019-05-23T17:40:00.346Z,7.35
2019-05-23T17:42:30.338Z,5.25
2019-05-23T17:45:00.269Z,7.92
2019-05-23T17:47:30.573Z,4.60
2019-05-23T17:50:00.430Z,7.08
2019-05-23T17:52:31.796Z,8.10
2019-05-23T17:55:03.354Z,7.85
2019-05-23T17:57:34.685Z,10.03
2019-05-23T18:00:09.830Z,7.72
2019-05-23T18:02:39.950Z,7.97
2019-05-23T18:05:10.163Z,6.83
2019-05-23T18:07:40.021Z,7.60
2019-05-23T18:10:11.861Z,6.83
2019-05-23T18:12:41.734Z,9.93
2019-05-23T18:15:13.201Z,13.78
2019-05-23T18:17:43.545Z,6.40
2019-05-23T18:20:14.173Z,10.08
2019-05-23T18:22:44.407Z,9.70
2019-05-23T18:25:14.926Z,10.32
2019-05-23T18:27:45.722Z,9.23
2019-05-23T18:30:26.230Z,12.20
2019-05-23T18:32:56.096Z,8.08
2019-05-23T18:35:26.673Z,6.12
2019-05-23T18:37:57.190Z,4.83
2019-05-23T18:40:27.723Z,7.22
2019-05-23T18:42:57.650Z,10.78
2019-05-23T18:45:29.165Z,7.78
2019-05-23T18:48:00.083Z,5.87
2019-05-23T18:50:31.101Z,9.53
2019-05-23T18:53:01.038Z,8.25
2019-05-23T18:55:31.380Z,10.03
2019-05-23T18:58:01.582Z,7.50
2019-05-23T19:00:47.167Z,6.25
2019-05-23T19:03:17.375Z,10.93
2019-05-23T19:05:47.309Z,10.28
2019-05-23T19:08:17.566Z,9.98
2019-05-23T19:10:47.439Z,7.55
2019-05-23T19:13:17.274Z,8.55
2019-05-23T19:15:47.498Z,8.88
2019-05-23T19:18:17.419Z,8.13
2019-05-23T19:20:47.440Z,9.70
2019-05-23T19:23:17.363Z,12.93
2019-05-23T19:25:47.240Z,15.25
2019-05-23T19:28:17.588Z,6.08
2019-05-23T19:30:47.842Z,8.43
2019-05-23T19:33:17.778Z,9.90
2019-05-23T19:35:49.131Z,11.65
2019-05-23T19:38:19.021Z,9.55
2019-05-23T19:40:49.489Z,14.13
2019-05-23T19:43:19.617Z,12.82
2019-05-23T19:45:49.830Z,7.58
2019-05-23T19:48:20.350Z,12.07
2019-05-23T19:50:51.054Z,8.10
2019-05-23T19:53:20.901Z,8.35
2019-05-23T19:55:51.339Z,11.12
2019-05-23T19:58:21.198Z,9.25
2019-05-23T20:00:51.483Z,6.55
2019-05-23T20:03:21.899Z,8.05
2019-05-23T20:05:54.026Z,8.00
2019-05-23T20:08:24.312Z,10.75
2019-05-23T20:10:54.555Z,6.87
2019-05-23T20:13:24.777Z,10.68
2019-05-23T20:15:54.611Z,10.72
2019-05-23T20:18:25.219Z,10.13
2019-05-23T20:20:55.365Z,7.50
2019-05-23T20:23:25.214Z,13.75
2019-05-23T20:25:55.697Z,9.78
2019-05-23T20:28:26.226Z,12.78
2019-05-23T20:30:56.844Z,8.75
2019-05-23T20:33:26.713Z,7.28
2019-05-23T20:35:56.655Z,8.68
2019-05-23T20:38:27.175Z,12.03
2019-05-23T20:40:57.426Z,8.98
2019-05-23T20:43:27.285Z,9.78
2019-05-23T20:45:57.141Z,10.68
2019-05-23T20:48:27.256Z,13.48
2019-05-23T20:50:57.162Z,12.88
2019-05-23T20:53:27.022Z,10.82
2019-05-23T20:55:56.865Z,12.10
2019-05-23T20:58:26.732Z,12.20
2019-05-23T21:00:59.309Z,10.10
2019-05-23T21:03:30.447Z,8.03
2019-05-23T21:06:00.290Z,7.85
2019-05-23T21:08:30.601Z,7.85
2019-05-23T21:11:00.450Z,11.38
2019-05-23T21:13:44.289Z,9.38
2019-05-23T21:16:31.303Z,9.65
2019-05-23T21:19:01.157Z,7.90
2019-05-23T21:21:31.394Z,10.53
2019-05-23T21:24:01.254Z,7.40
2019-05-23T21:26:31.097Z,7.67
2019-05-23T21:29:00.939Z,6.50
2019-05-23T21:31:30.981Z,12.90
2019-05-23T21:34:00.813Z,5.95
2019-05-23T21:36:30.834Z,9.35
2019-05-23T21:39:00.688Z,7.45
2019-05-23T21:41:30.615Z,12.58
2019-05-23T21:44:00.734Z,10.25
2019-05-23T21:46:30.762Z,8.73
2019-05-23T21:49:00.769Z,11.57
2019-05-23T21:51:30.573Z,11.00
2019-05-23T21:54:00.599Z,8.50
2019-05-23T21:56:30.502Z,9.05
2019-05-23T21:59:00.350Z,9.08
2019-05-23T22:01:31.835Z,8.00
2019-05-23T22:04:19.073Z,7.65
2019-05-23T22:06:50.621Z,7.05
2019-05-23T22:09:20.538Z,11.18
2019-05-23T22:11:50.886Z,11.75
2019-05-23T22:14:20.802Z,7.35
2019-05-23T22:16:51.118Z,6.55
2019-05-23T22:19:21.860Z,11.48
2019-05-23T22:21:51.711Z,9.23
2019-05-23T22:24:21.939Z,7.47
2019-05-23T22:26:51.782Z,8.30
2019-05-23T22:29:21.624Z,6.85
2019-05-23T22:31:51.467Z,9.18
2019-05-23T22:34:26.375Z,6.25
2019-05-23T22:36:56.485Z,12.93
2019-05-23T22:39:26.584Z,8.15
2019-05-23T22:41:56.822Z,7.03
2019-05-23T22:44:26.811Z,8.25
2019-05-23T22:46:57.027Z,7.53
2019-05-23T22:49:26.889Z,10.82
2019-05-23T22:51:56.757Z,10.10
2019-05-23T22:54:26.612Z,8.38
2019-05-23T22:56:56.461Z,9.58
2019-05-23T22:59:26.642Z,7.80
2019-05-23T23:01:56.586Z,7.67
2019-05-23T23:04:26.438Z,10.13
2019-05-23T23:06:57.399Z,6.25
2019-05-23T23:09:27.556Z,8.80
2019-05-23T23:11:57.464Z,9.88
2019-05-23T23:14:27.301Z,8.88
2019-05-23T23:16:57.484Z,7.15
2019-05-23T23:19:27.338Z,6.33
2019-05-23T23:21:57.179Z,10.50
2019-05-23T23:24:27.052Z,8.05
2019-05-23T23:26:56.890Z,8.43
2019-05-23T23:29:26.806Z,5.87
2019-05-23T23:31:56.737Z,8.78
2019-05-23T23:34:26.583Z,6.83
2019-05-23T23:36:56.441Z,10.00
2019-05-23T23:39:26.379Z,8.50
2019-05-23T23:41:56.226Z,11.08
2019-05-23T23:44:34.545Z,7.87
2019-05-23T23:47:22.835Z,7.72
2019-05-23T23:50:10.862Z,6.50
2019-05-23T23:52:58.950Z,6.17
2019-05-23T23:55:46.909Z,9.15
2019-05-23T23:58:16.077Z,8.80
